sensor_id;sensor_type;location;lat;lon;timestamp;pressure;altitude;pressure_sealevel;temperature;humidity
71697;BME280;68167;59.120;37.898;2023-08-30T00:01:21;99969.16;;;11.88;81.15
71697;BME280;68167;59.120;37.898;2023-08-30T00:03:47;99950.13;;;11.75;80.97
71697;BME280;68167;59.120;37.898;2023-08-30T00:06:13;99958.13;;;11.75;80.63
71697;BME280;68167;59.120;37.898;2023-08-30T00:08:41;99933.53;;;11.58;81.14
71697;BME280;68167;59.120;37.898;2023-08-30T00:11:08;99936.22;;;11.58;81.45
71697;BME280;68167;59.120;37.898;2023-08-30T00:13:34;99904.91;;;11.38;81.17
71697;BME280;68167;59.120;37.898;2023-08-30T00:16:01;99968.00;;;11.74;81.28
71697;BME280;68167;59.120;37.898;2023-08-30T00:18:29;99959.97;;;11.64;81.06
71697;BME280;68167;59.120;37.898;2023-08-30T00:20:55;99944.19;;;11.52;81.13
71697;BME280;68167;59.120;37.898;2023-08-30T00:23:22;99917.19;;;11.39;81.01
71697;BME280;68167;59.120;37.898;2023-08-30T00:25:49;99905.69;;;11.33;81.23
71697;BME280;68167;59.120;37.898;2023-08-30T00:28:15;99963.19;;;11.66;81.34
71697;BME280;68167;59.120;37.898;2023-08-30T00:30:41;99897.88;;;11.21;81.47
71697;BME280;68167;59.120;37.898;2023-08-30T00:33:11;99948.19;;;11.55;81.11
71697;BME280;68167;59.120;37.898;2023-08-30T00:35:37;99901.34;;;11.22;81.19
71697;BME280;68167;59.120;37.898;2023-08-30T00:38:03;99944.69;;;11.49;81.20
71697;BME280;68167;59.120;37.898;2023-08-30T00:40:38;99948.16;;;11.50;80.99
71697;BME280;68167;59.120;37.898;2023-08-30T00:43:04;99944.91;;;11.43;81.15
71697;BME280;68167;59.120;37.898;2023-08-30T00:45:30;99929.38;;;11.30;81.30
71697;BME280;68167;59.120;37.898;2023-08-30T00:47:57;99951.34;;;11.47;81.11
71697;BME280;68167;59.120;37.898;2023-08-30T00:50:24;99951.06;;;11.43;81.34
71697;BME280;68167;59.120;37.898;2023-08-30T00:52:50;99948.34;;;11.38;81.07
71697;BME280;68167;59.120;37.898;2023-08-30T00:55:17;99940.59;;;11.32;81.28
71697;BME280;68167;59.120;37.898;2023-08-30T00:57:43;99951.81;;;11.39;81.22
71697;BME280;68167;59.120;37.898;2023-08-30T01:00:10;99960.63;;;11.39;81.66
71697;BME280;68167;59.120;37.898;2023-08-30T01:02:37;99923.13;;;11.09;81.19
71697;BME280;68167;59.120;37.898;2023-08-30T01:05:04;99955.28;;;11.39;81.33
71697;BME280;68167;59.120;37.898;2023-08-30T01:07:30;99946.72;;;11.32;81.43
71697;BME280;68167;59.120;37.898;2023-08-30T01:09:57;99905.50;;;10.98;81.34
71697;BME280;68167;59.120;37.898;2023-08-30T01:12:47;99955.25;;;11.34;81.19
71697;BME280;68167;59.120;37.898;2023-08-30T01:15:22;99921.00;;;11.11;81.38
71697;BME280;68167;59.120;37.898;2023-08-30T01:17:51;99922.31;;;11.08;81.63
71697;BME280;68167;59.120;37.898;2023-08-30T01:20:19;99927.13;;;11.11;82.05
71697;BME280;68167;59.120;37.898;2023-08-30T01:28:21;99939.22;;;11.24;81.99
71697;BME280;68167;59.120;37.898;2023-08-30T01:30:48;99952.84;;;11.33;82.36
71697;BME280;68167;59.120;37.898;2023-08-30T01:33:16;99919.13;;;11.11;81.88
71697;BME280;68167;59.120;37.898;2023-08-30T01:35:45;99906.88;;;11.10;82.18
71697;BME280;68167;59.120;37.898;2023-08-30T01:38:12;99943.81;;;11.34;82.20
71697;BME280;68167;59.120;37.898;2023-08-30T01:40:42;99912.53;;;11.19;82.14
71697;BME280;68167;59.120;37.898;2023-08-30T01:43:09;99907.69;;;11.11;82.28
71697;BME280;68167;59.120;37.898;2023-08-30T01:45:40;99937.13;;;11.31;82.42
71697;BME280;68167;59.120;37.898;2023-08-30T01:48:12;99946.47;;;11.34;82.21
71697;BME280;68167;59.120;37.898;2023-08-30T01:50:40;99922.66;;;11.22;82.09
71697;BME280;68167;59.120;37.898;2023-08-30T01:53:11;99906.63;;;11.12;82.32
71697;BME280;68167;59.120;37.898;2023-08-30T01:55:38;99906.06;;;11.10;82.52
71697;BME280;68167;59.120;37.898;2023-08-30T01:58:06;99951.28;;;11.37;82.30
71697;BME280;68167;59.120;37.898;2023-08-30T02:00:32;99937.88;;;11.27;82.22
71697;BME280;68167;59.120;37.898;2023-08-30T02:02:59;99910.59;;;11.09;82.37
71697;BME280;68167;59.120;37.898;2023-08-30T02:05:25;99933.88;;;11.24;82.30
71697;BME280;68167;59.120;37.898;2023-08-30T02:07:57;99964.34;;;11.38;82.30
71697;BME280;68167;59.120;37.898;2023-08-30T02:10:34;99957.38;;;11.32;82.19
71697;BME280;68167;59.120;37.898;2023-08-30T02:13:03;99951.22;;;11.27;82.10
71697;BME280;68167;59.120;37.898;2023-08-30T02:15:33;99919.09;;;11.06;82.13
71697;BME280;68167;59.120;37.898;2023-08-30T02:18:00;99968.28;;;11.31;82.11
71697;BME280;68167;59.120;37.898;2023-08-30T02:20:26;99958.41;;;11.26;82.13
71697;BME280;68167;59.120;37.898;2023-08-30T02:22:57;99956.53;;;11.27;82.29
71697;BME280;68167;59.120;37.898;2023-08-30T02:25:24;99896.91;;;10.91;82.32
71697;BME280;68167;59.120;37.898;2023-08-30T02:27:51;99936.22;;;11.15;82.41
71697;BME280;68167;59.120;37.898;2023-08-30T02:30:19;99955.81;;;11.36;82.23
71697;BME280;68167;59.120;37.898;2023-08-30T02:32:46;99965.97;;;11.39;82.39
71697;BME280;68167;59.120;37.898;2023-08-30T02:35:12;99955.81;;;11.36;82.33
71697;BME280;68167;59.120;37.898;2023-08-30T02:37:39;99928.84;;;11.28;82.45
71697;BME280;68167;59.120;37.898;2023-08-30T02:40:08;99948.63;;;11.37;82.40
71697;BME280;68167;59.120;37.898;2023-08-30T02:42:39;99962.78;;;11.42;82.55
71697;BME280;68167;59.120;37.898;2023-08-30T02:45:06;99952.91;;;11.43;82.45
71697;BME280;68167;59.120;37.898;2023-08-30T02:47:32;99927.50;;;11.25;82.57
71697;BME280;68167;59.120;37.898;2023-08-30T02:50:01;99897.53;;;11.08;82.65
71697;BME280;68167;59.120;37.898;2023-08-30T02:52:28;99968.47;;;11.56;83.10
71697;BME280;68167;59.120;37.898;2023-08-30T02:54:54;99912.00;;;11.22;83.19
71697;BME280;68167;59.120;37.898;2023-08-30T02:57:21;99932.41;;;11.43;83.05
71697;BME280;68167;59.120;37.898;2023-08-30T02:59:48;99923.63;;;11.48;83.60
71697;BME280;68167;59.120;37.898;2023-08-30T03:02:14;99967.19;;;11.74;83.90
71697;BME280;68167;59.120;37.898;2023-08-30T03:04:41;99927.94;;;11.59;83.42
71697;BME280;68167;59.120;37.898;2023-08-30T03:07:10;99963.81;;;11.88;83.33
71697;BME280;68167;59.120;37.898;2023-08-30T03:09:36;99899.66;;;11.53;83.14
71697;BME280;68167;59.120;37.898;2023-08-30T03:12:05;99936.03;;;11.79;83.33
71697;BME280;68167;59.120;37.898;2023-08-30T03:14:33;99953.72;;;11.96;83.27
71697;BME280;68167;59.120;37.898;2023-08-30T03:16:59;99950.28;;;12.00;83.72
71697;BME280;68167;59.120;37.898;2023-08-30T03:19:26;99956.97;;;12.08;83.49
71697;BME280;68167;59.120;37.898;2023-08-30T03:21:53;99939.34;;;12.07;83.50
71697;BME280;68167;59.120;37.898;2023-08-30T03:24:20;99904.06;;;11.84;83.30
71697;BME280;68167;59.120;37.898;2023-08-30T03:26:46;99944.72;;;12.17;83.80
71697;BME280;68167;59.120;37.898;2023-08-30T03:29:13;99951.44;;;12.30;83.27
71697;BME280;68167;59.120;37.898;2023-08-30T03:31:40;99977.06;;;12.46;83.60
71697;BME280;68167;59.120;37.898;2023-08-30T03:34:07;99965.84;;;12.49;83.42
71697;BME280;68167;59.120;37.898;2023-08-30T03:36:34;99967.44;;;12.45;83.09
71697;BME280;68167;59.120;37.898;2023-08-30T03:39:00;99973.88;;;12.54;83.43
71697;BME280;68167;59.120;37.898;2023-08-30T03:41:27;99949.84;;;12.49;83.51
71697;BME280;68167;59.120;37.898;2023-08-30T03:43:54;99974.69;;;12.65;83.70
71697;BME280;68167;59.120;37.898;2023-08-30T03:46:20;99942.09;;;12.47;83.36
71697;BME280;68167;59.120;37.898;2023-08-30T03:48:47;99948.78;;;12.55;83.46
71697;BME280;68167;59.120;37.898;2023-08-30T03:51:13;99991.81;;;12.89;83.46
71697;BME280;68167;59.120;37.898;2023-08-30T03:53:40;99975.78;;;12.84;83.40
71697;BME280;68167;59.120;37.898;2023-08-30T03:56:06;99966.44;;;12.86;83.52
71697;BME280;68167;59.120;37.898;2023-08-30T03:58:33;99961.91;;;12.87;83.35
71697;BME280;68167;59.120;37.898;2023-08-30T04:01:00;99974.47;;;12.97;83.32
71697;BME280;68167;59.120;37.898;2023-08-30T04:03:27;99980.03;;;13.00;82.88
71697;BME280;68167;59.120;37.898;2023-08-30T04:05:56;99956.03;;;12.90;83.60
71697;BME280;68167;59.120;37.898;2023-08-30T04:08:23;99987.25;;;13.15;83.56
71697;BME280;68167;59.120;37.898;2023-08-30T04:10:52;99946.94;;;12.96;82.94
71697;BME280;68167;59.120;37.898;2023-08-30T04:13:19;99971.78;;;13.17;83.44
71697;BME280;68167;59.120;37.898;2023-08-30T04:15:47;99950.66;;;13.00;83.22
71697;BME280;68167;59.120;37.898;2023-08-30T04:18:13;99964.53;;;13.12;82.70
71697;BME280;68167;59.120;37.898;2023-08-30T04:20:45;99961.09;;;13.17;82.92
71697;BME280;68167;59.120;37.898;2023-08-30T04:23:12;99968.84;;;13.24;83.12
71697;BME280;68167;59.120;37.898;2023-08-30T04:25:38;99980.34;;;13.29;83.09
71697;BME280;68167;59.120;37.898;2023-08-30T04:28:05;99953.31;;;13.15;82.96
71697;BME280;68167;59.120;37.898;2023-08-30T04:30:32;99984.06;;;13.38;83.12
71697;BME280;68167;59.120;37.898;2023-08-30T04:32:59;99986.47;;;13.40;83.02
71697;BME280;68167;59.120;37.898;2023-08-30T04:35:30;99973.91;;;13.30;82.60
71697;BME280;68167;59.120;37.898;2023-08-30T04:38:00;99997.41;;;13.54;83.03
71697;BME280;68167;59.120;37.898;2023-08-30T04:40:28;99954.41;;;13.25;82.47
71697;BME280;68167;59.120;37.898;2023-08-30T04:42:59;99990.75;;;13.46;82.83
71697;BME280;68167;59.120;37.898;2023-08-30T04:45:25;99996.34;;;13.55;82.52
71697;BME280;68167;59.120;37.898;2023-08-30T04:47:52;99988.06;;;13.56;82.91
71697;BME280;68167;59.120;37.898;2023-08-30T04:50:19;100002.16;;;13.67;82.85
71697;BME280;68167;59.120;37.898;2023-08-30T04:52:45;99948.78;;;13.36;82.46
71697;BME280;68167;59.120;37.898;2023-08-30T04:55:12;99978.69;;;13.54;82.34
71697;BME280;68167;59.120;37.898;2023-08-30T04:57:38;100008.03;;;13.74;82.59
71697;BME280;68167;59.120;37.898;2023-08-30T05:00:06;99988.53;;;13.68;82.66
71697;BME280;68167;59.120;37.898;2023-08-30T05:02:33;99986.91;;;13.72;82.46
71697;BME280;68167;59.120;37.898;2023-08-30T05:05:09;100015.22;;;13.89;82.72
71697;BME280;68167;59.120;37.898;2023-08-30T05:07:36;99983.13;;;13.83;82.70
71697;BME280;68167;59.120;37.898;2023-08-30T05:10:04;99983.13;;;13.83;82.01
71697;BME280;68167;59.120;37.898;2023-08-30T05:12:35;99980.47;;;13.83;82.44
71697;BME280;68167;59.120;37.898;2023-08-30T05:15:02;99998.59;;;14.02;82.65
71697;BME280;68167;59.120;37.898;2023-08-30T05:17:32;99995.38;;;14.05;82.51
71697;BME280;68167;59.120;37.898;2023-08-30T05:20:00;100000.94;;;14.18;82.17
71697;BME280;68167;59.120;37.898;2023-08-30T05:22:26;100003.06;;;14.22;82.07
71697;BME280;68167;59.120;37.898;2023-08-30T05:24:52;99960.28;;;14.06;82.36
71697;BME280;68167;59.120;37.898;2023-08-30T05:27:19;100005.66;;;14.32;82.48
71697;BME280;68167;59.120;37.898;2023-08-30T05:29:45;99992.84;;;14.29;82.21
71697;BME280;68167;59.120;37.898;2023-08-30T05:32:12;100003.50;;;14.44;82.22
71697;BME280;68167;59.120;37.898;2023-08-30T05:34:59;99969.84;;;14.28;82.10
71697;BME280;68167;59.120;37.898;2023-08-30T05:37:34;99974.28;;;14.47;81.72
71697;BME280;68167;59.120;37.898;2023-08-30T05:40:17;99995.06;;;14.66;81.90
71697;BME280;68167;59.120;37.898;2023-08-30T05:42:44;99934.16;;;14.32;81.67
71697;BME280;68167;59.120;37.898;2023-08-30T05:45:11;99963.25;;;14.54;81.50
71697;BME280;68167;59.120;37.898;2023-08-30T05:47:38;99962.66;;;14.62;81.82
71697;BME280;68167;59.120;37.898;2023-08-30T05:50:05;99956.50;;;14.62;81.38
71697;BME280;68167;59.120;37.898;2023-08-30T05:52:32;99963.13;;;14.74;81.71
71697;BME280;68167;59.120;37.898;2023-08-30T05:54:59;100009.28;;;15.00;81.96
71697;BME280;68167;59.120;37.898;2023-08-30T05:57:26;99971.88;;;14.85;81.44
71697;BME280;68167;59.120;37.898;2023-08-30T05:59:55;99985.81;;;14.87;81.19
71697;BME280;68167;59.120;37.898;2023-08-30T06:02:21;100026.88;;;15.11;81.05
71697;BME280;68167;59.120;37.898;2023-08-30T06:04:47;100028.72;;;15.16;80.99
71697;BME280;68167;59.120;37.898;2023-08-30T06:07:13;100016.19;;;15.06;81.15
71697;BME280;68167;59.120;37.898;2023-08-30T06:09:40;100007.91;;;15.03;80.75
71697;BME280;68167;59.120;37.898;2023-08-30T06:12:06;100032.44;;;15.20;80.76
71697;BME280;68167;59.120;37.898;2023-08-30T06:14:33;100040.97;;;15.27;80.68
71697;BME280;68167;59.120;37.898;2023-08-30T06:16:59;100043.03;;;15.35;80.89
71697;BME280;68167;59.120;37.898;2023-08-30T06:19:25;100047.81;;;15.43;80.65
71697;BME280;68167;59.120;37.898;2023-08-30T06:21:52;100042.13;;;15.50;80.38
71697;BME280;68167;59.120;37.898;2023-08-30T06:24:18;100033.78;;;15.52;80.56
71697;BME280;68167;59.120;37.898;2023-08-30T06:26:44;99983.03;;;15.26;80.14
71697;BME280;68167;59.120;37.898;2023-08-30T06:29:10;100039.25;;;15.70;80.19
71697;BME280;68167;59.120;37.898;2023-08-30T06:31:36;100047.53;;;15.74;79.71
71697;BME280;68167;59.120;37.898;2023-08-30T06:34:03;99990.38;;;15.44;79.82
71697;BME280;68167;59.120;37.898;2023-08-30T06:36:29;100041.19;;;15.89;79.98
71697;BME280;68167;59.120;37.898;2023-08-30T06:38:56;100039.56;;;15.93;79.68
71697;BME280;68167;59.120;37.898;2023-08-30T06:41:22;99979.97;;;15.67;78.94
71697;BME280;68167;59.120;37.898;2023-08-30T06:43:49;100019.03;;;16.02;79.12
71697;BME280;68167;59.120;37.898;2023-08-30T06:46:15;99999.22;;;15.98;78.88
71697;BME280;68167;59.120;37.898;2023-08-30T06:48:41;100007.09;;;16.13;79.00
71697;BME280;68167;59.120;37.898;2023-08-30T06:51:08;99997.94;;;16.14;78.64
71697;BME280;68167;59.120;37.898;2023-08-30T06:53:34;99990.41;;;16.16;78.47
71697;BME280;68167;59.120;37.898;2023-08-30T06:56:01;100019.31;;;16.43;78.26
71697;BME280;68167;59.120;37.898;2023-08-30T06:58:27;100050.97;;;16.70;78.06
71697;BME280;68167;59.120;37.898;2023-08-30T07:00:54;100046.75;;;16.83;77.63
71697;BME280;68167;59.120;37.898;2023-08-30T07:03:22;100054.63;;;16.93;77.25
71697;BME280;68167;59.120;37.898;2023-08-30T07:05:51;100020.44;;;16.79;76.93
71697;BME280;68167;59.120;37.898;2023-08-30T07:08:17;100040.09;;;17.12;77.09
71697;BME280;68167;59.120;37.898;2023-08-30T07:10:44;100030.53;;;17.20;76.56
71697;BME280;68167;59.120;37.898;2023-08-30T07:13:10;100030.75;;;17.24;75.97
71697;BME280;68167;59.120;37.898;2023-08-30T07:15:41;100008.81;;;17.17;75.86
71697;BME280;68167;59.120;37.898;2023-08-30T07:18:09;100048.97;;;17.45;75.80
71697;BME280;68167;59.120;37.898;2023-08-30T07:20:35;100031.91;;;17.36;75.21
71697;BME280;68167;59.120;37.898;2023-08-30T07:23:05;100038.19;;;17.45;74.93
71697;BME280;68167;59.120;37.898;2023-08-30T07:25:31;100071.16;;;17.70;74.87
71697;BME280;68167;59.120;37.898;2023-08-30T07:27:59;100060.00;;;17.76;74.24
71697;BME280;68167;59.120;37.898;2023-08-30T07:30:26;100042.84;;;17.72;74.05
71697;BME280;68167;59.120;37.898;2023-08-30T07:32:52;100080.38;;;17.96;73.62
71697;BME280;68167;59.120;37.898;2023-08-30T07:35:18;100021.50;;;17.76;73.11
71697;BME280;68167;59.120;37.898;2023-08-30T07:37:45;100055.25;;;18.01;73.35
71697;BME280;68167;59.120;37.898;2023-08-30T07:40:11;100051.25;;;17.98;72.91
71697;BME280;68167;59.120;37.898;2023-08-30T07:42:38;100061.34;;;18.06;73.25
71697;BME280;68167;59.120;37.898;2023-08-30T07:45:04;100053.53;;;18.05;72.77
71697;BME280;68167;59.120;37.898;2023-08-30T07:47:33;100015.72;;;17.83;72.52
71697;BME280;68167;59.120;37.898;2023-08-30T07:49:59;100058.44;;;18.03;72.92
71697;BME280;68167;59.120;37.898;2023-08-30T07:52:26;100063.44;;;18.09;73.14
71697;BME280;68167;59.120;37.898;2023-08-30T07:54:52;100062.94;;;18.07;72.62
71697;BME280;68167;59.120;37.898;2023-08-30T07:57:18;100030.91;;;17.92;72.36
71697;BME280;68167;59.120;37.898;2023-08-30T07:59:45;100008.44;;;17.69;71.95
71697;BME280;68167;59.120;37.898;2023-08-30T08:02:11;100056.44;;;17.95;72.10
71697;BME280;68167;59.120;37.898;2023-08-30T08:04:37;100056.94;;;17.97;71.79
71697;BME280;68167;59.120;37.898;2023-08-30T08:07:04;100069.13;;;18.08;72.08
71697;BME280;68167;59.120;37.898;2023-08-30T08:09:31;100063.94;;;18.12;71.93
71697;BME280;68167;59.120;37.898;2023-08-30T08:11:58;100045.97;;;18.07;71.62
71697;BME280;68167;59.120;37.898;2023-08-30T08:14:25;100082.88;;;18.34;71.50
71697;BME280;68167;59.120;37.898;2023-08-30T08:16:51;100101.22;;;18.46;71.72
71697;BME280;68167;59.120;37.898;2023-08-30T08:19:18;100084.56;;;18.43;71.55
71697;BME280;68167;59.120;37.898;2023-08-30T08:21:46;100063.28;;;18.42;71.95
71697;BME280;68167;59.120;37.898;2023-08-30T08:24:13;100076.88;;;18.64;71.59
71697;BME280;68167;59.120;37.898;2023-08-30T08:26:40;100102.78;;;18.88;70.64
71697;BME280;68167;59.120;37.898;2023-08-30T08:29:06;100091.06;;;18.92;70.08
71697;BME280;68167;59.120;37.898;2023-08-30T08:31:33;100078.78;;;18.86;70.23
71697;BME280;68167;59.120;37.898;2023-08-30T08:34:26;100107.38;;;19.23;70.38
71697;BME280;68167;59.120;37.898;2023-08-30T08:36:52;100110.25;;;19.27;69.31
71697;BME280;68167;59.120;37.898;2023-08-30T08:39:19;100074.09;;;19.14;69.02
71697;BME280;68167;59.120;37.898;2023-08-30T08:41:45;100108.00;;;19.42;68.96
71697;BME280;68167;59.120;37.898;2023-08-30T08:44:13;100107.19;;;19.42;68.53
71697;BME280;68167;59.120;37.898;2023-08-30T08:46:40;100089.44;;;19.27;68.18
71697;BME280;68167;59.120;37.898;2023-08-30T08:49:15;100090.38;;;19.23;68.38
71697;BME280;68167;59.120;37.898;2023-08-30T08:51:44;100112.84;;;19.32;68.52
71697;BME280;68167;59.120;37.898;2023-08-30T08:54:12;100085.41;;;19.16;67.30
71697;BME280;68167;59.120;37.898;2023-08-30T08:56:39;100097.06;;;19.25;66.43
71697;BME280;68167;59.120;37.898;2023-08-30T08:59:06;100110.13;;;19.32;65.85
71697;BME280;68167;59.120;37.898;2023-08-30T09:01:35;100086.38;;;19.20;65.36
71697;BME280;68167;59.120;37.898;2023-08-30T09:04:06;100120.88;;;19.46;65.06
71697;BME280;68167;59.120;37.898;2023-08-30T09:06:34;100098.28;;;19.41;64.96
71697;BME280;68167;59.120;37.898;2023-08-30T09:09:02;100122.28;;;19.65;64.72
71697;BME280;68167;59.120;37.898;2023-08-30T09:11:32;100106.81;;;19.57;64.63
71697;BME280;68167;59.120;37.898;2023-08-30T09:13:59;100132.84;;;19.76;64.27
71697;BME280;68167;59.120;37.898;2023-08-30T09:16:26;100126.63;;;19.75;63.91
71697;BME280;68167;59.120;37.898;2023-08-30T09:19:02;100082.59;;;19.44;64.01
71697;BME280;68167;59.120;37.898;2023-08-30T09:21:30;100133.50;;;19.81;63.53
71697;BME280;68167;59.120;37.898;2023-08-30T09:24:06;100139.28;;;19.88;62.92
71697;BME280;68167;59.120;37.898;2023-08-30T09:26:35;100136.94;;;19.95;63.10
71697;BME280;68167;59.120;37.898;2023-08-30T09:29:07;100134.53;;;19.94;62.71
71697;BME280;68167;59.120;37.898;2023-08-30T09:31:38;100137.41;;;19.97;62.79
71697;BME280;68167;59.120;37.898;2023-08-30T09:34:07;100160.69;;;20.07;63.06
71697;BME280;68167;59.120;37.898;2023-08-30T09:36:35;100124.53;;;19.94;62.59
71697;BME280;68167;59.120;37.898;2023-08-30T09:41:32;100117.28;;;19.81;62.50
71697;BME280;68167;59.120;37.898;2023-08-30T09:44:00;100138.88;;;20.03;62.68
71697;BME280;68167;59.120;37.898;2023-08-30T09:46:27;100140.34;;;20.18;62.57
71697;BME280;68167;59.120;37.898;2023-08-30T09:48:54;100109.97;;;20.13;61.65
71697;BME280;68167;59.120;37.898;2023-08-30T09:51:21;100136.19;;;20.43;61.73
71697;BME280;68167;59.120;37.898;2023-08-30T09:53:53;100155.97;;;20.61;60.90
71697;BME280;68167;59.120;37.898;2023-08-30T09:56:22;100126.38;;;20.56;61.40
71697;BME280;68167;59.120;37.898;2023-08-30T09:58:50;100125.91;;;20.62;62.22
71697;BME280;68167;59.120;37.898;2023-08-30T10:01:16;100069.50;;;20.38;62.55
71697;BME280;68167;59.120;37.898;2023-08-30T10:03:43;100120.19;;;20.90;61.74
71697;BME280;68167;59.120;37.898;2023-08-30T10:06:09;100103.00;;;20.94;61.89
71697;BME280;68167;59.120;37.898;2023-08-30T10:08:36;100103.81;;;21.03;61.14
71697;BME280;68167;59.120;37.898;2023-08-30T10:11:05;100112.41;;;21.05;59.90
71697;BME280;68167;59.120;37.898;2023-08-30T10:13:35;100111.28;;;21.07;59.76
71697;BME280;68167;59.120;37.898;2023-08-30T10:16:02;100090.75;;;21.05;60.08
71697;BME280;68167;59.120;37.898;2023-08-30T10:18:32;100110.69;;;21.27;60.10
71697;BME280;68167;59.120;37.898;2023-08-30T10:21:02;100112.44;;;21.40;60.06
71697;BME280;68167;59.120;37.898;2023-08-30T10:23:33;100064.34;;;21.28;60.42
71697;BME280;68167;59.120;37.898;2023-08-30T10:26:03;100091.53;;;21.49;60.12
71697;BME280;68167;59.120;37.898;2023-08-30T10:28:31;100097.31;;;21.30;60.48
71697;BME280;68167;59.120;37.898;2023-08-30T10:30:58;100092.53;;;21.27;60.91
71697;BME280;68167;59.120;37.898;2023-08-30T10:33:24;100079.94;;;21.31;60.74
71697;BME280;68167;59.120;37.898;2023-08-30T10:35:52;100095.06;;;21.32;60.79
71697;BME280;68167;59.120;37.898;2023-08-30T10:38:28;100088.84;;;21.15;60.96
71697;BME280;68167;59.120;37.898;2023-08-30T10:40:55;100066.69;;;20.87;60.99
71697;BME280;68167;59.120;37.898;2023-08-30T10:43:29;100059.22;;;20.66;61.16
71697;BME280;68167;59.120;37.898;2023-08-30T10:46:01;100044.28;;;20.69;62.01
71697;BME280;68167;59.120;37.898;2023-08-30T10:48:38;100092.38;;;21.24;61.47
71697;BME280;68167;59.120;37.898;2023-08-30T10:51:19;100098.34;;;21.64;60.12
71697;BME280;68167;59.120;37.898;2023-08-30T10:53:58;100093.16;;;21.97;60.14
71697;BME280;68167;59.120;37.898;2023-08-30T10:56:31;100086.22;;;22.17;58.74
71697;BME280;68167;59.120;37.898;2023-08-30T10:59:02;100099.28;;;22.53;57.78
71697;BME280;68167;59.120;37.898;2023-08-30T11:01:29;100097.41;;;22.74;58.03
71697;BME280;68167;59.120;37.898;2023-08-30T11:03:55;100035.81;;;22.66;56.35
71697;BME280;68167;59.120;37.898;2023-08-30T11:06:22;100062.75;;;23.13;55.44
71697;BME280;68167;59.120;37.898;2023-08-30T11:08:49;100079.16;;;23.49;54.95
71697;BME280;68167;59.120;37.898;2023-08-30T11:11:16;100085.59;;;23.78;54.57
71697;BME280;68167;59.120;37.898;2023-08-30T11:13:43;100080.41;;;24.09;54.58
71697;BME280;68167;59.120;37.898;2023-08-30T11:16:09;100080.88;;;24.48;53.11
71697;BME280;68167;59.120;37.898;2023-08-30T11:18:39;100051.25;;;24.58;51.48
71697;BME280;68167;59.120;37.898;2023-08-30T11:21:07;100075.34;;;24.97;51.79
71697;BME280;68167;59.120;37.898;2023-08-30T11:23:35;100072.03;;;25.31;51.12
71697;BME280;68167;59.120;37.898;2023-08-30T11:26:01;100071.78;;;25.52;48.93
71697;BME280;68167;59.120;37.898;2023-08-30T11:28:29;100040.97;;;25.36;47.86
71697;BME280;68167;59.120;37.898;2023-08-30T11:30:56;100060.28;;;25.58;47.37
71697;BME280;68167;59.120;37.898;2023-08-30T11:33:22;100026.66;;;25.39;47.33
71697;BME280;68167;59.120;37.898;2023-08-30T11:35:50;100055.47;;;25.68;46.84
71697;BME280;68167;59.120;37.898;2023-08-30T11:38:20;100083.63;;;25.72;46.42
71697;BME280;68167;59.120;37.898;2023-08-30T11:40:49;100080.06;;;25.55;46.47
71697;BME280;68167;59.120;37.898;2023-08-30T11:43:16;100063.50;;;25.33;46.15
71697;BME280;68167;59.120;37.898;2023-08-30T11:45:42;100067.78;;;25.18;46.70
71697;BME280;68167;59.120;37.898;2023-08-30T11:48:09;100084.03;;;25.14;45.91
71697;BME280;68167;59.120;37.898;2023-08-30T11:50:35;100088.72;;;25.02;45.95
71697;BME280;68167;59.120;37.898;2023-08-30T11:53:02;100088.84;;;24.81;46.27
71697;BME280;68167;59.120;37.898;2023-08-30T11:55:29;100071.31;;;24.66;46.42
71697;BME280;68167;59.120;37.898;2023-08-30T11:57:55;100042.34;;;24.34;46.48
71697;BME280;68167;59.120;37.898;2023-08-30T12:00:22;100073.63;;;24.40;47.05
71697;BME280;68167;59.120;37.898;2023-08-30T12:02:48;100062.94;;;24.22;47.50
71697;BME280;68167;59.120;37.898;2023-08-30T12:05:15;100066.69;;;24.18;46.98
71697;BME280;68167;59.120;37.898;2023-08-30T12:07:45;100072.59;;;24.08;47.39
71697;BME280;68167;59.120;37.898;2023-08-30T12:10:12;100034.03;;;23.69;47.49
71697;BME280;68167;59.120;37.898;2023-08-30T12:12:44;100039.59;;;23.60;47.64
71697;BME280;68167;59.120;37.898;2023-08-30T12:15:11;100037.25;;;23.50;47.86
71697;BME280;68167;59.120;37.898;2023-08-30T12:17:38;100066.63;;;23.57;49.09
71697;BME280;68167;59.120;37.898;2023-08-30T12:20:06;100061.94;;;23.45;48.02
71697;BME280;68167;59.120;37.898;2023-08-30T12:23:26;100051.97;;;23.37;49.46
71697;BME280;68167;59.120;37.898;2023-08-30T12:26:13;100055.31;;;23.22;47.52
71697;BME280;68167;59.120;37.898;2023-08-30T12:28:41;100058.13;;;23.13;47.45
71697;BME280;68167;59.120;37.898;2023-08-30T12:31:10;100047.53;;;22.99;48.00
71697;BME280;68167;59.120;37.898;2023-08-30T12:33:37;100023.38;;;22.86;48.59
71697;BME280;68167;59.120;37.898;2023-08-30T12:36:05;100061.09;;;22.99;48.01
71697;BME280;68167;59.120;37.898;2023-08-30T12:38:32;100023.56;;;23.02;48.40
71697;BME280;68167;59.120;37.898;2023-08-30T12:40:58;100050.72;;;23.35;47.41
71697;BME280;68167;59.120;37.898;2023-08-30T12:43:24;100027.81;;;23.23;48.44
71697;BME280;68167;59.120;37.898;2023-08-30T12:45:51;100038.06;;;23.39;48.83
71697;BME280;68167;59.120;37.898;2023-08-30T12:48:18;100021.97;;;23.33;48.84
71697;BME280;68167;59.120;37.898;2023-08-30T12:50:46;100029.00;;;23.35;49.35
71697;BME280;68167;59.120;37.898;2023-08-30T12:53:13;99980.13;;;23.14;49.94
71697;BME280;68167;59.120;37.898;2023-08-30T12:55:42;99991.16;;;23.29;49.46
71697;BME280;68167;59.120;37.898;2023-08-30T12:58:09;100005.88;;;23.41;48.43